M I D A S
Marine Information and Data Acquisition System
Tripno 777 of the Zeeleeuw from 2004-06-01 07:27:25 to 2004-06-01 14:19:10
Back to CruiseResearch ActivitiesStationsMapUnderway DataData graphs

EquipmentUnitsComment
TimeDGPSUTC
LatitudeDGPSDM.mWGS84
LongitudeDGPSDM.mWGS84
HeadingGyrodeg 
SOGDGPSknotsSpeed over ground
COGDGPSdegCourse over ground
DepthEcho soundermeters200 kHz
Missing or incorrect values are displayed as -999
Navigation data collected by the RV Zeeleeuw from 2004-06-01 07:27:25 to 2004-06-01 14:19:10
Time Latitude Longitude Heading SOG COG Depth
2004-06-01 07:28:31 51°13.582 2°56.119 136 2.5 131 8.4
2004-06-01 07:29:31 51°13.544 2°56.186 136.5 3.7 130 9.4
2004-06-01 07:30:31 51°13.535 2°56.266 76.7 1.2 77 9.1
2004-06-01 07:31:31 51°13.542 2°56.282 39.6 0.2 47 9.1
2004-06-01 07:32:31 51°13.525 2°56.27 15.4 0.2   9.3
2004-06-01 07:33:32 51°13.517 2°56.274 3.3 0.9 175 -999
2004-06-01 07:34:31 51°13.545 2°56.225 298.1 3 293 9.1
2004-06-01 07:35:31 51°13.56 2°56.155 290.4 2.7 289 9.3
2004-06-01 07:36:32 51°13.576 2°56.095 299.2 2.2 296 9.7
2004-06-01 07:37:32 51°13.594 2°56.051 307.7 1.6 304 9.3
2004-06-01 07:38:33 51°13.604 2°56.027 311.4 1.1 307 9.2
2004-06-01 07:39:32 51°13.611 2°56.012 312.7 0.3 306 9
2004-06-01 07:40:33 51°13.614 2°56.003 309.5 0.4 305 9.2
2004-06-01 07:41:32 51°13.62 2°55.987 308.9 2 302 9.8
2004-06-01 07:42:33 51°13.655 2°55.903 308.4 4.1 304 9.6
2004-06-01 07:43:32 51°13.698 2°55.808 310.9 5.6 306 11.4
2004-06-01 07:44:32 51°13.784 2°55.677 330.8 8 327 9.5
2004-06-01 07:45:32 51°13.913 2°55.592 346.4 8.6 340 9.9
2004-06-01 07:46:32 51°14.049 2°55.515 344.8 8.9 337 11.9
2004-06-01 07:47:32 51°14.182 2°55.369 326.8 10.2 321 11.7
2004-06-01 07:48:33 51°14.304 2°55.168 315.7 10.7 310 11.3
2004-06-01 07:49:32 51°14.431 2°54.948 315.3 12.1 307 11.3
2004-06-01 07:50:33 51°14.465 2°54.61 267.4 13.4 257 10.9
2004-06-01 07:51:32 51°14.372 2°54.287 244.5 13.7 239 9.6
2004-06-01 07:52:33 51°14.255 2°53.961 246.5 13.9 243 9.4
2004-06-01 07:53:33 51°14.145 2°53.632 246.3 14.1 242 9.7
2004-06-01 07:54:33 51°14.035 2°53.301 246.4 14.1 242 10
2004-06-01 07:55:33 51°13.918 2°52.975 241.6 14.2 237 10.5
2004-06-01 07:56:32 51°13.793 2°52.663 241.7 14.2 238 10.6
2004-06-01 07:57:33 51°13.667 2°52.339 243.1 14.2 239 10.8
2004-06-01 07:58:33 51°13.547 2°52.013 243.9 14.3 240 11
2004-06-01 07:59:33 51°13.428 2°51.687 244.3 14.3 240 11.1
2004-06-01 08:00:32 51°13.311 2°51.367 243.8 14.1 240 11.1
2004-06-01 08:01:32 51°13.193 2°51.043 244.2 14.2 240 11.2
2004-06-01 08:02:32 51°13.073 2°50.72 244.4 14.1 239 11.3
2004-06-01 08:03:32 51°12.95 2°50.401 240.4 14.1 237 11.4
2004-06-01 08:04:32 51°12.819 2°50.091 238.6 14.2 235 11.3
2004-06-01 08:05:32 51°12.681 2°49.789 238.2 14.1 236 11.4
2004-06-01 08:06:32 51°12.56 2°49.47 243.1 14 239 11.4
2004-06-01 08:07:32 51°12.441 2°49.151 243.9 14 240 11.4
2004-06-01 08:08:32 51°12.322 2°48.835 243.2 13.9 239 11.4
2004-06-01 08:09:32 51°12.204 2°48.519 243.3 13.8 239 11.4
2004-06-01 08:10:33 51°12.084 2°48.198 243.4 13.9 239 11.4
2004-06-01 08:11:32 51°11.968 2°47.89 243.1 13.8 239 11.3
2004-06-01 08:12:33 51°11.858 2°47.564 247.2 13.7 242 11.2
2004-06-01 08:13:33 51°11.752 2°47.242 246.6 13.7 242 11.1
2004-06-01 08:14:33 51°11.645 2°46.921 246.3 13.7 243 10.9
2004-06-01 08:15:32 51°11.542 2°46.605 247.5 13.6 244 10.7
2004-06-01 08:16:33 51°11.446 2°46.272 250.7 13.6 247 10.9
2004-06-01 08:17:32 51°11.361 2°45.944 251.5 13.6 248 11.1
2004-06-01 08:18:32 51°11.259 2°45.624 243.1 13.5 240 11.1
2004-06-01 08:19:32 51°11.146 2°45.315 243.6 13.6 241 10.7
2004-06-01 08:20:33 51°11.043 2°44.994 249.6 13.5 246 10.6
2004-06-01 08:21:32 51°10.961 2°44.67 253.8 13.4 250 10.7
2004-06-01 08:22:32 51°10.884 2°44.336 253.8 13.4 249 10.7
2004-06-01 08:23:32 51°10.808 2°44.003 253.8 13.3 250 10.8
2004-06-01 08:24:32 51°10.732 2°43.671 253 13.3 250 10.8
2004-06-01 08:25:32 51°10.656 2°43.341 253.3 13.3 250 10.8
2004-06-01 08:26:32 51°10.58 2°43.012 253.4 13.2 250 10.9
2004-06-01 08:27:32 51°10.505 2°42.684 253.7 13.2 249 10.9
2004-06-01 08:28:33 51°10.429 2°42.352 253.2 13.1 250 11
2004-06-01 08:29:32 51°10.355 2°42.031 253.1 13.2 249 11.2
2004-06-01 08:30:32 51°10.28 2°41.706 252.9 13.1 250 11.3
2004-06-01 08:31:33 51°10.205 2°41.377 252.6 13 249 11.4
2004-06-01 08:32:32 51°10.133 2°41.059 252.6 12.9 250 11.7
2004-06-01 08:33:32 51°10.06 2°40.737 253.3 12.9 251 11.9
2004-06-01 08:34:33 51°9.987 2°40.409 253.3 12.9 250 12
2004-06-01 08:35:32 51°9.915 2°40.091 253.4 13 250 12.2
2004-06-01 08:36:32 51°9.843 2°39.765 253.9 13 250 12.3
2004-06-01 08:37:33 51°9.769 2°39.436 252.9 12.9 251 12.4
2004-06-01 08:38:32 51°9.699 2°39.118 253.3 12.9 251 12.6
2004-06-01 08:39:32 51°9.628 2°38.795 253.3 12.9 251 13
2004-06-01 08:40:32 51°9.558 2°38.474 253.7 12.8 251 13.1
2004-06-01 08:41:32 51°9.488 2°38.154 253.1 12.8 251 13.2
2004-06-01 08:42:32 51°9.417 2°37.836 253.2 12.7 250 13.4
2004-06-01 08:43:32 51°9.345 2°37.523 250.2 11.9 245 13.6
2004-06-01 08:44:33 51°9.258 2°37.319 238.5 6.9 237 13.6
2004-06-01 08:45:32 51°9.207 2°37.223 224.4 3.4 215 13.3
2004-06-01 08:46:33 51°9.17 2°37.186 230.4 1.9 223 13
2004-06-01 08:47:32 51°9.161 2°37.172 231.1 0.2 178 13
2004-06-01 08:48:32 51°9.161 2°37.174 231.4 0.2 71 13
2004-06-01 08:49:32 51°9.163 2°37.182 235.6 0.4 50 13
2004-06-01 08:50:33 51°9.169 2°37.192 240.1 0.6 48 13.1
2004-06-01 08:51:32 51°9.176 2°37.205 242.4 0.7 43 13.1
2004-06-01 08:52:32 51°9.185 2°37.219 245.4 0.8 41 13.3
2004-06-01 08:53:32 51°9.195 2°37.235 247.5 0.9 43 13.3
2004-06-01 08:54:32 51°9.206 2°37.252 249.3 0.9 46 13.4
2004-06-01 08:55:32 51°9.216 2°37.271 250.5 1 50 13.5
2004-06-01 08:56:32 51°9.227 2°37.291 253.7 1 48 13.6
2004-06-01 08:57:33 51°9.24 2°37.311 256.1 1.1 46 13.7
2004-06-01 08:58:32 51°9.252 2°37.331 256.3 1.1 43 13.8
2004-06-01 08:59:32 51°9.265 2°37.352 256.4 1.1 48 13.9
2004-06-01 09:00:33 51°9.277 2°37.374 257.4 1.1 51 14
2004-06-01 09:01:32 51°9.29 2°37.395 259.1 1.1 47 14
2004-06-01 09:02:32 51°9.303 2°37.418 259.6 1.2 47 14.1
2004-06-01 09:03:33 51°9.315 2°37.437 256.3 0.9 41 14.2
2004-06-01 09:04:33 51°9.325 2°37.449 247.8 0.6 35 14.3
2004-06-01 09:05:33 51°9.331 2°37.458 241.5 0.4 45 14.3
2004-06-01 09:06:33 51°9.336 2°37.464 237.9 0.3 48 14.4
2004-06-01 09:07:33 51°9.337 2°37.471 234.3 0.2 74 14.4
2004-06-01 09:08:32 51°9.337 2°37.47 244.8 0.7 252 14.4
2004-06-01 09:09:32 51°9.323 2°37.406 253.5 3.5 255 14.5
2004-06-01 09:10:32 51°9.314 2°37.319 259.4 3.2 264 14.7
2004-06-01 09:11:33 51°9.325 2°37.234 280.6 3.4 291 15.1
2004-06-01 09:12:36 51°9.349 2°37.147 283.8 3.5 298 15.9
2004-06-01 09:13:38 51°9.388 2°37.075 295.7 3.4 315 16.8
2004-06-01 09:14:38 51°9.435 2°37.021 307.8 3.5 329 17.9
2004-06-01 09:15:38 51°9.475 2°36.974 290.6 2.7 319 18.7
2004-06-01 09:16:37 51°9.502 2°36.927 280.6 2.3 309 18.8
2004-06-01 09:17:39 51°9.522 2°36.878 271.7 2.1 298 18.8
2004-06-01 09:18:38 51°9.535 2°36.831 268.5 2 295 18.6
2004-06-01 09:19:38 51°9.55 2°36.783 270 2.1 296 18.4
2004-06-01 09:20:38 51°9.565 2°36.736 270.9 2 298 18.4
2004-06-01 09:21:38 51°9.583 2°36.689 273.9 2.1 302 18.8
2004-06-01 09:22:39 51°9.603 2°36.642 276.5 2.2 307 19.1
2004-06-01 09:23:39 51°9.624 2°36.597 277.5 2.1 306 19.2
2004-06-01 09:24:38 51°9.646 2°36.554 279.3 2.1 309 19.3
2004-06-01 09:25:38 51°9.665 2°36.51 270.8 1.9 298 19.5
2004-06-01 09:26:37 51°9.676 2°36.462 265.7 2.2 283 19.8
2004-06-01 09:27:39 51°9.684 2°36.392 266.6 2.8 281 19.9
2004-06-01 09:28:39 51°9.694 2°36.32 267.3 2.8 281 20.4
2004-06-01 09:29:38 51°9.702 2°36.25 265.6 2.7 279 20
2004-06-01 09:30:39 51°9.709 2°36.179 264.9 2.6 278 20.6
2004-06-01 09:31:39 51°9.718 2°36.109 271.5 2.9 289 20.8
2004-06-01 09:32:38 51°9.74 2°36.04 278.7 3.1 300 20.6
2004-06-01 09:33:37 51°9.777 2°35.976 298 3.6 323 20.8
2004-06-01 09:34:38 51°9.833 2°35.926 308.2 3.9 333 21.2
2004-06-01 09:35:38 51°9.896 2°35.886 316.3 4.2 341 21.4
2004-06-01 09:36:38 51°9.966 2°35.856 323.7 4.3 348 21
2004-06-01 09:37:38 51°10.03 2°35.844 328.5 3.7 359 19.8
2004-06-01 09:38:39 51°10.087 2°35.849 330.4 3.1 8 18.2
2004-06-01 09:39:39 51°10.127 2°35.871 321.4 2.3 28 17
2004-06-01 09:40:38 51°10.16 2°35.896 307.8 2.2 23 16
2004-06-01 09:41:39 51°10.192 2°35.917 298.1 1.9 23 14.7
2004-06-01 09:42:44 51°10.223 2°35.939 289 1.8 23 14.1
2004-06-01 09:43:44 51°10.256 2°35.915 289.5 4.2 310 13.4
2004-06-01 09:44:44 51°10.371 2°35.776 326.9 11.4 333 14.1
2004-06-01 09:45:44 51°10.581 2°35.765 12.8 14 14 13.4
2004-06-01 09:46:46 51°10.807 2°35.945 34.3 14.9 31 13.6
2004-06-01 09:47:54 51°11.05 2°36.177 33.6 15 31 14.1
2004-06-01 09:48:53 51°11.259 2°36.38 33.8 15 32 14.1
2004-06-01 09:49:52 51°11.467 2°36.588 34.6 15 32 14.4
2004-06-01 09:50:54 51°11.684 2°36.806 34.6 14.9 32 14.1
2004-06-01 09:51:54 51°11.893 2°37.018 34.8 14.9 33 14.3
2004-06-01 09:52:54 51°12.102 2°37.233 35.3 14.9 33 14.4
2004-06-01 09:53:54 51°12.311 2°37.448 35 15 33 14.4
2004-06-01 09:54:58 51°12.534 2°37.677 35.3 15 33 15.2
2004-06-01 09:55:59 51°12.748 2°37.897 35.3 15 33 15.6
2004-06-01 09:56:58 51°12.955 2°38.108 35 15 32 16.4
2004-06-01 09:57:57 51°13.162 2°38.319 35.2 15 33 17.1
2004-06-01 09:59:00 51°13.383 2°38.543 35.5 15 32 17.3
2004-06-01 09:59:58 51°13.598 2°38.709 27.3 14.9 25 17.4
2004-06-01 10:00:58 51°13.827 2°38.857 23.8 14.8 22 16.8
2004-06-01 10:01:58 51°14.055 2°39.007 23.5 14.9 23 15.8
2004-06-01 10:02:58 51°14.286 2°39.066 350.3 13.7 347 15.4
2004-06-01 10:03:58 51°14.485 2°38.897 327.4 13.7 329 20.9
2004-06-01 10:04:59 51°14.687 2°38.709 327.3 13.8 330 19.7
2004-06-01 10:05:59 51°14.887 2°38.524 330.2 13.8 330 19.6
2004-06-01 10:06:59 51°15.087 2°38.344 330.2 13.8 331 18.3
2004-06-01 10:07:59 51°15.286 2°38.169 330.3 13.5 331 14.8
2004-06-01 10:08:58 51°15.479 2°38 329.8 13.4 330 13.5
2004-06-01 10:09:59 51°15.68 2°37.827 330.1 13.6 332 12.9
2004-06-01 10:10:59 51°15.876 2°37.655 329.8 13.5 332 13
2004-06-01 10:11:59 51°16.074 2°37.482 329.8 13.8 331 13.6
2004-06-01 10:12:59 51°16.279 2°37.307 330.6 14.2 331 23.9
2004-06-01 10:13:59 51°16.491 2°37.13 332.1 14.4 333 29.6
2004-06-01 10:14:59 51°16.703 2°36.948 329.8 14.5 332 29
2004-06-01 10:15:59 51°16.917 2°36.767 330.1 14.5 332 31.2
2004-06-01 10:16:58 51°17.126 2°36.585 329.4 14.3 330 29.6
2004-06-01 10:17:58 51°17.329 2°36.4 330.2 14 331 24.8
2004-06-01 10:18:58 51°17.529 2°36.218 330.2 13.7 330 20
2004-06-01 10:19:59 51°17.729 2°36.036 329.7 13.5 330 16
2004-06-01 10:20:59 51°17.923 2°35.861 329.2 13.4 330 16.7
2004-06-01 10:21:59 51°18.119 2°35.679 331 13.8 331 22.9
2004-06-01 10:22:58 51°18.32 2°35.514 330.9 13.8 333 27.5
2004-06-01 10:23:58 51°18.53 2°35.349 329.6 14.2 334 29.7
2004-06-01 10:24:59 51°18.745 2°35.179 329.9 14.2 333 26.8
2004-06-01 10:25:59 51°18.957 2°35.009 329.5 14.3 333 22.5
2004-06-01 10:26:59 51°19.165 2°34.835 329.8 14 332 21.6
2004-06-01 10:27:59 51°19.371 2°34.662 329.9 13.9 332 18.6
2004-06-01 10:28:59 51°19.577 2°34.492 330.6 13.9 333 18.3
2004-06-01 10:29:58 51°19.783 2°34.323 330.2 14.2 333 31.2
2004-06-01 10:30:59 51°19.999 2°34.146 330.9 14.4 333 32.5
2004-06-01 10:31:59 51°20.212 2°33.971 330.3 14.4 333 33.7
2004-06-01 10:32:59 51°20.425 2°33.794 330.8 14.3 333 34.1
2004-06-01 10:33:58 51°20.628 2°33.614 329.2 14.2 330 33.7
2004-06-01 10:34:58 51°20.838 2°33.434 330.6 14.5 332 33.2
2004-06-01 10:35:59 51°21.056 2°33.248 330.2 14.6 332 33.6
2004-06-01 10:36:59 51°21.219 2°32.988 307.8 13.6 308 31.5
2004-06-01 10:37:59 51°21.369 2°32.716 312.8 13.6 313 25.5
2004-06-01 10:38:59 51°21.526 2°32.456 314.2 13.6 315 21.8
2004-06-01 10:39:59 51°21.681 2°32.197 314.2 13.5 315 26.6
2004-06-01 10:40:59 51°21.841 2°31.944 313.9 13.5 315 30.8
2004-06-01 10:41:59 51°22.005 2°31.696 314.5 13.5 317 33.7
2004-06-01 10:42:59 51°22.176 2°31.462 318.6 13.8 325 33.4
2004-06-01 10:43:59 51°22.379 2°31.276 326.2 14.1 330 33.5
2004-06-01 10:44:59 51°22.576 2°31.08 321.5 13.9 326 33.3
2004-06-01 10:45:59 51°22.762 2°30.862 317.9 13.8 321 32.3
2004-06-01 10:46:59 51°22.934 2°30.623 316.5 13.8 320 33.2
2004-06-01 10:47:58 51°23.117 2°30.407 326.6 14.2 331 35.5
2004-06-01 10:48:59 51°23.334 2°30.23 330.4 14.4 333 35.6
2004-06-01 10:49:57 51°23.54 2°30.058 329.7 14.5 333 36.1
2004-06-01 10:50:59 51°23.763 2°29.874 330.1 14.6 333 36.3
2004-06-01 10:51:58 51°23.973 2°29.695 329.6 14.6 333 36
2004-06-01 10:52:59 51°24.203 2°29.538 334.9 14.8 338 35.8
2004-06-01 10:53:59 51°24.431 2°29.388 334.7 14.8 338 37.1
2004-06-01 10:54:58 51°24.66 2°29.255 338 14.9 340 35.8
2004-06-01 10:55:59 51°24.899 2°29.122 337.1 14.8 340 33.7
2004-06-01 10:56:59 51°25.122 2°28.98 338 14.2 339 28
2004-06-01 10:57:59 51°25.34 2°28.848 337.7 13.9 339 16.5
2004-06-01 10:58:58 51°25.551 2°28.721 336.5 13.7 338 13.3
2004-06-01 10:59:58 51°25.77 2°28.593 337.8 14.2 339 19.9
2004-06-01 11:00:58 51°25.994 2°28.459 337.8 14.5 339 34.2
2004-06-01 11:01:59 51°26.224 2°28.322 337 14.5 339 36.3
2004-06-01 11:02:58 51°26.447 2°28.185 336.3 14.5 337 36.7
2004-06-01 11:03:58 51°26.676 2°28.05 337.3 14.7 339 37.1
2004-06-01 11:04:59 51°26.908 2°27.912 337.2 14.6 339 37.2
2004-06-01 11:05:58 51°27.132 2°27.775 337.5 14.5 339 37.3
2004-06-01 11:06:59 51°27.362 2°27.635 337 14.5 339 37
2004-06-01 11:07:59 51°27.588 2°27.502 339.7 14.4 342 32.6
2004-06-01 11:08:58 51°27.813 2°27.386 340.9 14.4 343 24.3
2004-06-01 11:09:59 51°28.048 2°27.28 341.8 14.5 345 30
2004-06-01 11:10:59 51°28.284 2°27.176 342.3 14.7 344 35.7
2004-06-01 11:11:58 51°28.516 2°27.071 341.9 14.8 344 35.6
2004-06-01 11:12:56 51°28.695 2°27.015 359.5 8.4 4 37
2004-06-01 11:13:59 51°28.789 2°27.063 31.6 2.6 35 36.6
2004-06-01 11:14:59 51°28.802 2°27.071 48.6 0.9 21 -999
2004-06-01 11:15:59 51°28.817 2°27.086 41.1 1.1 33 37
2004-06-01 11:16:58 51°28.834 2°27.105 34.4 1.3 37 36.9
2004-06-01 11:17:59 51°28.852 2°27.129 24.8 1.4 39 36.7
2004-06-01 11:18:58 51°28.871 2°27.156 18 1.6 41 36.7
2004-06-01 11:19:59 51°28.894 2°27.184 11.5 1.8 37 36.7
2004-06-01 11:20:58 51°28.917 2°27.213 5.7 1.9 35 36.5
2004-06-01 11:21:58 51°28.943 2°27.241 1.4 1.8 33 36.5
2004-06-01 11:22:59 51°28.97 2°27.268 357.7 1.9 32 36
2004-06-01 11:23:59 51°28.998 2°27.295 354.7 2 30 36.3
2004-06-01 11:24:59 51°29.037 2°27.315 346 4 359 35.9
2004-06-01 11:25:58 51°29.1 2°27.231 283 5.6 292 36.1
2004-06-01 11:26:59 51°29.045 2°27.082 221.8 8.7 216 37.3
2004-06-01 11:27:59 51°28.895 2°26.896 223 12.1 219 37.3
2004-06-01 11:28:59 51°28.745 2°26.68 225.1 12.2 223 37
2004-06-01 11:29:59 51°28.593 2°26.459 226.2 12.4 221 37.2
2004-06-01 11:31:00 51°28.439 2°26.233 227.2 12.3 224 37.1
2004-06-01 11:31:59 51°28.291 2°26.014 226.1 12.3 222 37.8
2004-06-01 11:32:59 51°28.139 2°25.794 226.3 12.3 222 38.9
2004-06-01 11:33:59 51°27.988 2°25.573 226.2 12.3 222 37.7
2004-06-01 11:34:58 51°27.841 2°25.356 227.1 12.2 224 37.5
2004-06-01 11:35:58 51°27.691 2°25.135 226.5 12.3 223 37.5
2004-06-01 11:36:58 51°27.54 2°24.914 225.8 12.3 223 37.4
2004-06-01 11:37:59 51°27.387 2°24.689 227.1 12.2 224 37.4
2004-06-01 11:38:59 51°27.236 2°24.467 227.5 12.3 222 37.1
2004-06-01 11:39:59 51°27.084 2°24.248 226.5 12.3 222 37.6
2004-06-01 11:40:59 51°26.931 2°24.029 226.2 12.3 221 35
2004-06-01 11:41:59 51°26.784 2°23.802 227.9 12.2 225 34.1
2004-06-01 11:42:59 51°26.636 2°23.573 227.8 12.3 224 37
2004-06-01 11:43:59 51°26.487 2°23.345 227.9 12.3 223 32.6
2004-06-01 11:44:59 51°26.337 2°23.117 228.4 12.4 223 33.4
2004-06-01 11:45:57 51°26.192 2°22.896 228.7 12.4 224 31.6
2004-06-01 11:47:00 51°26.032 2°22.658 228.3 12.5 224 28.6
2004-06-01 11:47:59 51°25.881 2°22.433 228.5 12.5 224 23.8
2004-06-01 11:48:59 51°25.729 2°22.201 229.1 12.5 225 24.6
2004-06-01 11:49:58 51°25.583 2°21.971 232.2 12.6 228 23.1
2004-06-01 11:50:58 51°25.446 2°21.716 233.6 12.4 228 19.8
2004-06-01 11:51:59 51°25.307 2°21.464 233.6 12.3 229 18.2
2004-06-01 11:53:00 51°25.15 2°21.252 217.3 11.3 209 16.2
2004-06-01 11:54:00 51°25.046 2°21.205 206.9 3.7 191 18.7
2004-06-01 11:54:59 51°25.014 2°21.162 241.9 3.2 237 17.9
2004-06-01 11:56:00 51°24.996 2°21.074 252.7 3.4 253 17.1
2004-06-01 11:57:00 51°24.989 2°20.987 262.2 3.2 269 15.2
2004-06-01 11:57:59 51°24.991 2°20.906 265.8 3.2 276 14.4
2004-06-01 11:58:58 51°24.995 2°20.825 265.9 3.1 275 13.9
2004-06-01 11:59:58 51°24.999 2°20.746 262.8 2.8 270 13.5
2004-06-01 12:00:58 51°24.982 2°20.688 237.8 2.4 230 15.4
2004-06-01 12:01:58 51°24.956 2°20.635 232.4 2.7 224 15.4
2004-06-01 12:02:59 51°24.914 2°20.595 221.3 3 207 13.8
2004-06-01 12:04:00 51°24.875 2°20.548 231.5 2.8 222 15.3
2004-06-01 12:04:58 51°24.842 2°20.495 231.9 2.9 225 13.9
2004-06-01 12:05:59 51°24.807 2°20.44 232.3 2.9 226 15.5
2004-06-01 12:06:58 51°24.773 2°20.386 229.7 2.9 223 15.4
2004-06-01 12:07:59 51°24.735 2°20.336 223.8 3 211 15
2004-06-01 12:08:58 51°24.696 2°20.29 226.8 2.9 220 15.7
2004-06-01 12:09:58 51°24.658 2°20.242 226.2 3 219 13.4
2004-06-01 12:10:58 51°24.619 2°20.195 225.8 2.8 217 14.7
2004-06-01 12:12:00 51°24.58 2°20.149 226.5 2.8 220 15.7
2004-06-01 12:12:59 51°24.543 2°20.101 226.4 2.9 219 15.5
2004-06-01 12:13:58 51°24.504 2°20.054 224.3 2.9 215 13.6
2004-06-01 12:14:58 51°24.466 2°20.01 227.1 2.8 220 14.2
2004-06-01 12:15:59 51°24.43 2°19.96 227.6 2.8 219 15.4
2004-06-01 12:16:59 51°24.394 2°19.914 226.4 2.8 219 15.3
2004-06-01 12:17:59 51°24.363 2°19.857 235.5 2.8 235 14.4
2004-06-01 12:19:00 51°24.338 2°19.794 240.2 2.7 240 15.7
2004-06-01 12:19:59 51°24.325 2°19.725 249.3 2.8 258 18.1
2004-06-01 12:20:59 51°24.322 2°19.651 258.3 2.9 272 21.4
2004-06-01 12:22:00 51°24.326 2°19.577 263.4 2.3 287 24.4
2004-06-01 12:23:00 51°24.345 2°19.531 275.7 2 313 27.7
2004-06-01 12:23:58 51°24.369 2°19.501 282.6 1.8 328 31.7
2004-06-01 12:25:00 51°24.438 2°19.421 320.4 7.9 330 35.4
2004-06-01 12:26:00 51°24.606 2°19.461 31.5 11.7 31 34.2
2004-06-01 12:26:59 51°24.68 2°19.684 96.5 7.4 82 36.1
2004-06-01 12:27:59 51°24.672 2°19.821 132.8 4.1 103 32.1
2004-06-01 12:28:59 51°24.654 2°19.898 156.6 2.6 114 26.7
2004-06-01 12:29:58 51°24.64 2°19.95 170 1.9 114 25.2
2004-06-01 12:30:58 51°24.623 2°19.985 183.4 2.5 152 23.5
2004-06-01 12:31:59 51°24.505 2°20.076 160.5 12.1 151 13.4
2004-06-01 12:33:00 51°24.322 2°20.282 148.1 13.8 140 18.2
2004-06-01 12:33:59 51°24.159 2°20.534 144.6 13.8 136 29.7
2004-06-01 12:34:59 51°24.021 2°20.832 133.3 13.9 125 36.4
2004-06-01 12:35:59 51°23.894 2°21.145 132.6 14 125 36.7
2004-06-01 12:37:00 51°23.762 2°21.46 132.8 14 124 35.3
2004-06-01 12:37:58 51°23.636 2°21.758 132.4 14 123 35.6
2004-06-01 12:38:59 51°23.544 2°22.111 114.3 14.3 105 34.7
2004-06-01 12:40:00 51°23.48 2°22.485 114.6 14.3 107 30.8
2004-06-01 12:40:59 51°23.413 2°22.846 115.4 14.4 106 31.4
2004-06-01 12:41:59 51°23.345 2°23.212 116 14.4 107 35
2004-06-01 12:42:58 51°23.277 2°23.573 115.6 14.3 106 34.7
2004-06-01 12:43:59 51°23.208 2°23.948 116.6 14.4 107 34.8
2004-06-01 12:44:59 51°23.141 2°24.318 116.8 14.5 107 36.4
2004-06-01 12:45:59 51°23.073 2°24.688 116.6 14.6 106 35.4
2004-06-01 12:47:00 51°22.994 2°25.058 119.3 14.4 109 34.8
2004-06-01 12:47:59 51°22.918 2°25.416 119.5 14.5 109 30.7
2004-06-01 12:48:59 51°22.837 2°25.777 119.2 14.5 110 18.6
2004-06-01 12:49:59 51°22.756 2°26.141 119 14.5 109 28.7
2004-06-01 12:50:59 51°22.673 2°26.503 119.1 14.4 111 34
2004-06-01 12:51:58 51°22.619 2°26.876 111.9 14.6 102 35.3
2004-06-01 12:52:59 51°22.564 2°27.261 112.3 14.6 103 35.9
2004-06-01 12:53:59 51°22.511 2°27.639 112.2 14.6 104 35.7
2004-06-01 12:54:58 51°22.459 2°28.01 111.8 14.6 103 35.6
2004-06-01 12:56:00 51°22.403 2°28.399 112.2 14.5 103 34.6
2004-06-01 12:56:59 51°22.367 2°28.777 106.8 14.7 98 34.8
2004-06-01 12:57:59 51°22.337 2°29.163 107.2 14.6 97 34.8
2004-06-01 12:58:58 51°22.321 2°29.544 103.4 14.5 94 33.9
2004-06-01 12:59:59 51°22.304 2°29.936 102.7 14.6 93 32.7
2004-06-01 13:00:58 51°22.287 2°30.315 102.8 14.6 95 32.8
2004-06-01 13:01:59 51°22.262 2°30.708 107.5 14.6 100 33.2
2004-06-01 13:02:58 51°22.203 2°31.072 117.4 14.3 109 32.9
2004-06-01 13:03:59 51°22.114 2°31.429 120.4 14.1 113 32.2
2004-06-01 13:04:58 51°22.027 2°31.77 120.4 14 112 29.8
2004-06-01 13:05:59 51°21.935 2°32.12 119.3 14.1 112 31.6
2004-06-01 13:06:59 51°21.843 2°32.464 119.9 14 113 28.5
2004-06-01 13:07:59 51°21.754 2°32.811 119.1 14 113 24.4
2004-06-01 13:08:59 51°21.667 2°33.156 119.2 14 110 24.3
2004-06-01 13:09:57 51°21.6 2°33.501 115.1 14 108 29.2
2004-06-01 13:10:59 51°21.529 2°33.868 115.4 14 108 33.3
2004-06-01 13:11:59 51°21.457 2°34.223 114.5 14 108 32.7
2004-06-01 13:12:59 51°21.387 2°34.584 114.5 14.2 108 35
2004-06-01 13:13:58 51°21.318 2°34.938 116.1 14.1 109 36.4
2004-06-01 13:15:03 51°21.244 2°35.33 116.2 14.2 110 36.1
2004-06-01 13:16:02 51°21.176 2°35.687 117.4 14.3 109 31.6
2004-06-01 13:17:03 51°21.095 2°36.049 118.1 14.2 110 28.8
2004-06-01 13:18:03 51°21.014 2°36.402 116.8 14 112 27.3
2004-06-01 13:19:04 51°20.927 2°36.751 117.9 13.8 111 23.4
2004-06-01 13:20:04 51°20.843 2°37.097 116.8 14 111 23.9
2004-06-01 13:21:04 51°20.759 2°37.445 118.2 14.2 112 25.1
2004-06-01 13:22:04 51°20.676 2°37.794 117.4 14 111 25.1
2004-06-01 13:23:04 51°20.596 2°38.143 115.3 13.9 110 23.5
2004-06-01 13:24:04 51°20.519 2°38.492 115.8 13.9 110 25.1
2004-06-01 13:25:04 51°20.443 2°38.841 114.3 13.9 108 25.7
2004-06-01 13:26:04 51°20.38 2°39.195 112.1 13.8 106 25.9
2004-06-01 13:27:04 51°20.32 2°39.547 112.4 13.7 106 27.2
2004-06-01 13:28:04 51°20.248 2°39.89 122.6 13.4 120 29.3
2004-06-01 13:29:03 51°20.119 2°40.176 132.3 13.6 126 29.7
2004-06-01 13:30:04 51°19.968 2°40.453 139.8 13.6 135 29.1
2004-06-01 13:31:04 51°19.808 2°40.709 140.8 13.5 134 17.6
2004-06-01 13:32:04 51°19.643 2°40.956 142.2 13.7 137 19.6
2004-06-01 13:33:01 51°19.49 2°41.198 139.7 13.7 131 19.9
2004-06-01 13:34:04 51°19.332 2°41.486 137.6 13.7 132 18.2
2004-06-01 13:35:04 51°19.178 2°41.758 137 13.7 133 21.8
2004-06-01 13:36:04 51°19.024 2°42.027 137.5 13.5 133 23.6
2004-06-01 13:37:04 51°18.87 2°42.295 137.7 13.8 132 24.5
2004-06-01 13:38:02 51°18.722 2°42.559 137 13.7 132 24.6
2004-06-01 13:39:04 51°18.552 2°42.819 141 13.6 137 24.6
2004-06-01 13:40:04 51°18.384 2°43.064 144.5 13.7 139 24.7
2004-06-01 13:41:04 51°18.21 2°43.298 145.9 13.8 139 23.4
2004-06-01 13:42:01 51°18.044 2°43.512 145.6 13.3 141 13.4
2004-06-01 13:43:04 51°17.859 2°43.746 145.4 13.6 142 13
2004-06-01 13:44:04 51°17.682 2°43.971 144.8 13.7 140 16.9
2004-06-01 13:45:04 51°17.504 2°44.196 144.7 13.7 141 17.9
2004-06-01 13:46:04 51°17.326 2°44.421 145.9 13.6 142 17
2004-06-01 13:47:04 51°17.151 2°44.649 145.6 13.5 141 17.2
2004-06-01 13:48:04 51°16.975 2°44.874 145.1 13.6 141 13.8
2004-06-01 13:49:04 51°16.805 2°45.108 142.1 13.5 138 12.7
2004-06-01 13:50:04 51°16.638 2°45.35 141.5 13.6 136 11.9
2004-06-01 13:51:04 51°16.508 2°45.642 127.1 13.7 121 11.8
2004-06-01 13:52:04 51°16.388 2°45.951 128.3 13.8 121 10.8
2004-06-01 13:53:03 51°16.305 2°46.284 117.6 14 111 10.6
2004-06-01 13:54:04 51°16.218 2°46.635 117.1 14.3 110 12.4
2004-06-01 13:55:04 51°16.167 2°47.001 107.7 14.2 101 14.4
2004-06-01 13:56:04 51°16.115 2°47.365 108.2 14 103 16.4
2004-06-01 13:57:04 51°16.061 2°47.725 109 13.8 104 16.5
2004-06-01 13:58:04 51°16.005 2°48.081 108.7 13.9 104 16
2004-06-01 13:59:04 51°15.946 2°48.437 109.5 13.8 105 14.9
2004-06-01 14:00:04 51°15.889 2°48.79 108.1 13.7 104 12.8
2004-06-01 14:01:04 51°15.833 2°49.144 108.8 13.8 104 11.5
2004-06-01 14:02:04 51°15.776 2°49.498 109.9 13.9 105 11.4
2004-06-01 14:03:04 51°15.719 2°49.852 109.5 13.8 104 13.1
2004-06-01 14:04:04 51°15.659 2°50.204 109.6 13.7 106 13.6
2004-06-01 14:05:04 51°15.59 2°50.552 113.6 13.8 109 13.7
2004-06-01 14:06:04 51°15.519 2°50.898 112.2 13.6 108 13.6
2004-06-01 14:07:04 51°15.449 2°51.241 111.7 13.6 108 13.5
2004-06-01 14:08:04 51°15.378 2°51.587 112.3 13.6 109 13.1
2004-06-01 14:09:04 51°15.307 2°51.927 112.7 13.5 110 12.7
2004-06-01 14:10:04 51°15.209 2°52.251 121.8 13.4 118 12.1
2004-06-01 14:11:04 51°15.105 2°52.569 120.3 13.7 117 11.4
2004-06-01 14:12:04 51°15.003 2°52.89 119.6 13.6 115 11.2
2004-06-01 14:13:04 51°14.904 2°53.211 118.3 13.5 114 11
2004-06-01 14:14:04 51°14.816 2°53.541 117.2 13.2 113 10.7
2004-06-01 14:15:04 51°14.73 2°53.872 117.8 13.7 112 10.7
2004-06-01 14:16:04 51°14.638 2°54.206 118 13.6 115 11.3
2004-06-01 14:17:04 51°14.542 2°54.53 121 13.4 118 11.1
2004-06-01 14:18:04 51°14.437 2°54.839 120.4 13 119 11.2
2004-06-01 14:19:04 51°14.334 2°55.117 127.2 12 127 11.4